Time;durP1;ratioP1;P1;durP2;ratioP2;P2;SDS_P1;SDS_P2;PMS_P1;PMS_P2;Temp;Humidity;BMP_temperature;BMP_pressure;BME280_temperature;BME280_humidity;BME280_pressure;Samples;Min_cycle;Max_cycle;Signal;HPM_P1;HPM_P2
2021/12/14 00:01:18;;;;;;;4.83;2.17;;;9.20;99.90;;;;;;5022802;28;20034;-85
2021/12/14 00:03:47;;;;;;;4.10;2.13;;;9.30;99.90;;;;;;5000403;28;20052;-86
2021/12/14 00:06:14;;;;;;;5.72;2.22;;;9.30;99.90;;;;;;5000905;28;20037;-85
2021/12/14 00:08:56;;;;;;;5.07;2.40;;;9.30;99.90;;;;;;5001178;28;20034;-85
2021/12/14 00:14:27;;;;;;;5.30;2.53;;;9.30;99.90;;;;;;5035048;28;20032;-85
2021/12/14 00:16:58;;;;;;;4.60;2.47;;;9.30;99.90;;;;;;5017773;28;20091;-85
2021/12/14 00:19:26;;;;;;;4.37;2.40;;;9.30;99.90;;;;;;5017753;28;20460;-85
2021/12/14 00:21:54;;;;;;;10.40;3.03;;;9.30;99.90;;;;;;5002355;28;20076;-85
2021/12/14 00:24:25;;;;;;;4.70;2.67;;;9.30;99.90;;;;;;5018336;28;20076;-85
2021/12/14 00:26:54;;;;;;;5.03;2.63;;;9.30;99.90;;;;;;5002574;28;20486;-86
2021/12/14 00:29:30;;;;;;;4.87;2.47;;;9.30;99.90;;;;;;5018323;28;20029;-86
2021/12/14 00:32:01;;;;;;;6.03;2.93;;;9.20;99.90;;;;;;5003543;28;20387;-86
2021/12/14 00:34:39;;;;;;;5.17;2.90;;;9.20;99.90;;;;;;5019966;28;20021;-85
2021/12/14 00:37:08;;;;;;;4.35;2.78;;;9.20;99.90;;;;;;5019363;28;20051;-85
2021/12/14 00:39:35;;;;;;;5.35;3.15;;;9.20;99.90;;;;;;5001646;28;20095;-85
2021/12/14 00:42:05;;;;;;;4.90;2.87;;;9.20;99.90;;;;;;5001759;28;20091;-84
2021/12/14 00:44:33;;;;;;;4.60;2.53;;;9.20;99.90;;;;;;4998927;28;20026;-85
2021/12/14 00:46:59;;;;;;;5.90;3.27;;;9.20;99.90;;;;;;4998596;28;20033;-83
2021/12/14 00:49:25;;;;;;;6.73;3.00;;;9.20;99.90;;;;;;5000814;28;20079;-83
2021/12/14 00:51:51;;;;;;;5.50;3.40;;;9.20;99.90;;;;;;5001789;28;20029;-83
2021/12/14 00:54:18;;;;;;;7.20;3.33;;;9.20;99.90;;;;;;5001731;28;20036;-83
2021/12/14 00:56:46;;;;;;;4.93;2.90;;;9.20;99.90;;;;;;5018774;28;20478;-83
2021/12/14 00:59:13;;;;;;;6.10;3.30;;;9.20;99.90;;;;;;5016895;28;20029;-83
2021/12/14 01:01:54;;;;;;;5.80;2.80;;;9.20;99.90;;;;;;4999136;28;20352;-83
2021/12/14 01:04:47;;;;;;;4.90;3.07;;;9.20;99.90;;;;;;5033322;28;20040;-83
2021/12/14 01:07:16;;;;;;;5.07;3.57;;;9.20;99.90;;;;;;5015052;28;20076;-85
2021/12/14 01:09:46;;;;;;;5.50;3.10;;;9.10;99.90;;;;;;5014475;28;20026;-85
2021/12/14 01:12:18;;;;;;;;;;;9.20;99.90;;;;;;4999588;28;20040;-83
2021/12/14 01:15:12;;;;;;;5.63;3.10;;;9.20;99.90;;;;;;4998921;28;19909;-83
2021/12/14 01:17:55;;;;;;;7.10;3.37;;;9.10;99.90;;;;;;5032952;28;20033;-84
2021/12/14 01:20:29;;;;;;;5.77;3.23;;;9.10;99.90;;;;;;4998737;28;20478;-83
2021/12/14 01:23:00;;;;;;;5.37;3.30;;;9.10;99.90;;;;;;5033293;28;20030;-83
2021/12/14 01:25:34;;;;;;;7.77;3.20;;;9.20;99.90;;;;;;5014295;28;20046;-83
2021/12/14 01:28:06;;;;;;;6.57;3.43;;;9.20;99.90;;;;;;4998250;28;20106;-83
2021/12/14 01:30:36;;;;;;;6.73;3.57;;;9.20;99.90;;;;;;5014828;28;20124;-83
2021/12/14 01:33:06;;;;;;;8.20;3.60;;;9.20;99.90;;;;;;5014972;28;20136;-82
2021/12/14 01:35:35;;;;;;;5.87;3.50;;;9.10;99.90;;;;;;5015101;28;20462;-83
2021/12/14 01:38:15;;;;;;;;;;;9.10;99.90;;;;;;4998732;28;20034;-83
2021/12/14 01:40:53;;;;;;;7.50;3.57;;;9.20;99.90;;;;;;4998403;28;20335;-83
2021/12/14 01:43:36;;;;;;;7.33;4.10;;;9.20;99.90;;;;;;5015105;28;20037;-82
2021/12/14 01:46:35;;;;;;;7.83;4.40;;;9.20;99.90;;;;;;4999822;28;20067;-83
2021/12/14 01:49:23;;;;;;;7.43;4.43;;;9.20;99.90;;;;;;5015790;28;20502;-85
2021/12/14 01:52:30;;;;;;;8.77;4.70;;;9.30;99.90;;;;;;4971642;28;20031;-83
2021/12/14 01:55:00;;;;;;;9.93;4.83;;;9.30;99.90;;;;;;5004799;28;20029;-83
2021/12/14 01:57:29;;;;;;;9.10;4.60;;;9.20;99.90;;;;;;4998754;28;20193;-83
2021/12/14 01:59:58;;;;;;;10.27;4.50;;;9.20;99.90;;;;;;4998671;28;20083;-83
2021/12/14 02:02:40;;;;;;;9.05;4.93;;;9.20;99.90;;;;;;4998842;28;20029;-83
2021/12/14 02:05:16;;;;;;;7.73;4.60;;;9.20;99.90;;;;;;4998803;28;20520;-83
2021/12/14 02:07:42;;;;;;;8.90;5.07;;;9.20;99.90;;;;;;4998843;28;20516;-83
2021/12/14 02:10:14;;;;;;;9.50;5.00;;;9.20;99.90;;;;;;4998090;28;20037;-83
2021/12/14 02:12:44;;;;;;;11.00;4.80;;;9.20;99.90;;;;;;4999296;28;20080;-83
2021/12/14 02:15:16;;;;;;;8.95;5.10;;;9.20;99.90;;;;;;4999446;28;20056;-84
2021/12/14 02:17:44;;;;;;;9.37;4.87;;;9.20;99.90;;;;;;4999684;28;20040;-83
2021/12/14 02:20:12;;;;;;;11.37;5.50;;;9.20;99.90;;;;;;4998719;28;20033;-83
2021/12/14 02:22:38;;;;;;;8.97;5.10;;;9.20;99.90;;;;;;5015560;28;20026;-83
2021/12/14 02:25:06;;;;;;;8.37;4.73;;;9.20;99.90;;;;;;5015660;28;20032;-83
2021/12/14 02:27:38;;;;;;;10.03;4.80;;;9.20;99.90;;;;;;5015407;28;20032;-83
2021/12/14 02:30:12;;;;;;;7.40;5.00;;;9.20;99.90;;;;;;4999767;28;20029;-83
2021/12/14 02:32:38;;;;;;;10.07;5.20;;;9.20;99.90;;;;;;5016331;28;20037;-83
2021/12/14 02:35:10;;;;;;;8.20;5.07;;;9.20;99.90;;;;;;5016560;28;20053;-83
2021/12/14 02:37:47;;;;;;;9.30;5.27;;;9.20;99.90;;;;;;5004182;28;20025;-84
2021/12/14 02:40:53;;;;;;;8.57;5.00;;;9.20;99.90;;;;;;5020524;28;20033;-83
2021/12/14 02:43:11;;;;;;;9.13;5.50;;;9.20;99.90;;;;;;5019848;28;20447;-83
2021/12/14 02:45:37;;;;;;;8.53;4.83;;;9.20;99.90;;;;;;5020366;28;20056;-84
2021/12/14 02:48:10;;;;;;;10.93;4.90;;;9.20;99.90;;;;;;5019895;28;20021;-83
2021/12/14 02:50:37;;;;;;;9.73;5.23;;;9.20;99.90;;;;;;5019827;28;20493;-83
2021/12/14 02:53:04;;;;;;;8.93;5.63;;;9.20;99.90;;;;;;5020070;28;20056;-83
2021/12/14 02:55:31;;;;;;;8.43;5.97;;;9.20;99.90;;;;;;5003289;28;20033;-83
2021/12/14 02:58:05;;;;;;;10.83;5.50;;;9.20;99.90;;;;;;5019649;28;20136;-84
2021/12/14 03:00:48;;;;;;;10.83;5.80;;;9.20;99.90;;;;;;5020110;28;20034;-83
2021/12/14 03:03:14;;;;;;;9.77;6.20;;;9.20;99.90;;;;;;5004503;28;20025;-83
2021/12/14 03:05:43;;;;;;;10.10;6.33;;;9.20;99.90;;;;;;5004342;28;20029;-83
2021/12/14 03:08:25;;;;;;;10.20;6.20;;;9.20;99.90;;;;;;5020154;28;20075;-83
2021/12/14 03:11:10;;;;;;;13.20;6.97;;;9.20;99.90;;;;;;5020198;28;20397;-84
2021/12/14 03:13:50;;;;;;;10.73;6.13;;;9.20;99.90;;;;;;5004529;28;20041;-84
2021/12/14 03:16:20;;;;;;;12.48;6.75;;;9.20;99.90;;;;;;5021991;28;20107;-83
2021/12/14 03:18:49;;;;;;;10.33;6.40;;;9.20;99.90;;;;;;5039834;28;20461;-83
2021/12/14 03:21:19;;;;;;;12.38;6.63;;;9.20;99.90;;;;;;5004537;28;20025;-83
2021/12/14 03:23:55;;;;;;;15.23;7.37;;;9.20;99.90;;;;;;5004647;28;20560;-83
2021/12/14 03:26:25;;;;;;;10.57;6.67;;;9.20;99.90;;;;;;5022081;28;20061;-83
2021/12/14 03:28:55;;;;;;;14.83;8.53;;;9.20;99.90;;;;;;5020762;28;20030;-85
2021/12/14 03:31:32;;;;;;;13.87;8.10;;;9.20;99.90;;;;;;5021279;28;20048;-84
2021/12/14 03:34:10;;;;;;;13.70;7.63;;;9.20;99.90;;;;;;5006031;28;20037;-83
2021/12/14 03:36:43;;;;;;;14.40;8.23;;;9.20;99.90;;;;;;5003018;28;20033;-86
2021/12/14 03:39:17;;;;;;;15.40;8.30;;;9.10;99.90;;;;;;5002819;28;20040;-86
2021/12/14 03:41:48;;;;;;;14.17;7.70;;;9.10;99.90;;;;;;5021901;28;20037;-84
2021/12/14 03:44:26;;;;;;;14.73;9.00;;;9.10;99.90;;;;;;5022577;28;20029;-84
2021/12/14 03:47:35;;;;;;;14.73;8.30;;;9.00;99.90;;;;;;5019896;28;20044;-83
2021/12/14 03:50:13;;;;;;;13.75;8.05;;;9.00;99.90;;;;;;4974498;28;20129;-83
2021/12/14 03:52:41;;;;;;;14.03;8.40;;;9.00;99.90;;;;;;5020823;28;20038;-83
2021/12/14 03:55:26;;;;;;;14.33;8.23;;;8.90;99.90;;;;;;5001506;28;20030;-83
2021/12/14 03:57:53;;;;;;;13.33;8.70;;;8.90;99.90;;;;;;5000168;28;20026;-84
2021/12/14 04:00:29;;;;;;;15.43;9.17;;;8.90;99.90;;;;;;5001198;28;20399;-83
2021/12/14 04:02:58;;;;;;;16.57;9.80;;;8.90;99.90;;;;;;5034798;28;20532;-83
2021/12/14 04:05:40;;;;;;;20.37;10.30;;;8.90;99.90;;;;;;5002380;28;20029;-83
2021/12/14 04:08:06;;;;;;;17.80;10.30;;;8.90;99.90;;;;;;5015774;28;20025;-85
2021/12/14 04:10:36;;;;;;;15.80;9.87;;;8.90;99.90;;;;;;5015636;28;20029;-85
2021/12/14 04:13:03;;;;;;;17.80;9.67;;;8.90;99.90;;;;;;5015717;28;20397;-85
2021/12/14 04:15:29;;;;;;;17.73;10.30;;;8.90;99.90;;;;;;5015603;28;20040;-85
2021/12/14 04:17:56;;;;;;;18.70;10.70;;;8.90;99.90;;;;;;5015807;28;20033;-83
2021/12/14 04:20:29;;;;;;;18.40;10.50;;;8.90;99.90;;;;;;5015511;28;20505;-86
2021/12/14 04:22:55;;;;;;;17.67;10.43;;;8.90;99.90;;;;;;4999115;28;20401;-83
2021/12/14 04:25:27;;;;;;;21.73;11.07;;;9.00;99.90;;;;;;5016099;28;20036;-83
2021/12/14 04:27:55;;;;;;;18.13;10.17;;;8.90;99.90;;;;;;4999814;28;21737;-83
2021/12/14 04:30:23;;;;;;;18.37;10.80;;;8.90;99.90;;;;;;5000940;28;20034;-83
2021/12/14 04:32:53;;;;;;;20.77;10.88;;;8.90;99.90;;;;;;5001010;28;20036;-84
2021/12/14 04:35:19;;;;;;;18.73;11.07;;;8.90;99.90;;;;;;5001150;28;20029;-83
2021/12/14 04:37:52;;;;;;;20.53;10.70;;;8.90;99.90;;;;;;5017009;28;20112;-83
2021/12/14 04:54:10;;;;;;;19.17;10.57;;;8.90;99.90;;;;;;5031650;28;20029;-83
2021/12/14 04:56:39;;;;;;;20.93;11.37;;;8.90;99.90;;;;;;5009974;28;20028;-83
2021/12/14 04:59:23;;;;;;;23.73;11.30;;;8.90;99.90;;;;;;5018533;28;20481;-83
2021/12/14 05:01:52;;;;;;;17.33;10.33;;;8.90;99.90;;;;;;5015307;28;20632;-83
2021/12/14 05:04:36;;;;;;;19.93;11.10;;;8.90;99.90;;;;;;5015282;28;20028;-83
2021/12/14 05:07:25;;;;;;;16.73;10.27;;;8.90;99.90;;;;;;5014894;28;20108;-83
2021/12/14 05:09:49;;;;;;;17.73;10.70;;;8.90;99.90;;;;;;5014184;28;20402;-83
2021/12/14 05:12:28;;;;;;;19.30;11.63;;;8.90;99.90;;;;;;4999606;28;20021;-82
2021/12/14 05:15:09;;;;;;;18.70;10.87;;;8.90;99.90;;;;;;5015001;28;20033;-83
2021/12/14 05:17:42;;;;;;;20.10;11.97;;;8.80;99.90;;;;;;5015103;28;20033;-83
2021/12/14 05:20:11;;;;;;;17.42;10.52;;;8.80;99.90;;;;;;4998633;28;20083;-83
2021/12/14 05:22:42;;;;;;;19.60;12.00;;;8.90;99.90;;;;;;5015377;28;20036;-87
2021/12/14 05:25:13;;;;;;;23.27;11.90;;;8.80;99.90;;;;;;4997594;28;20021;-84
2021/12/14 05:27:46;;;;;;;18.40;10.83;;;8.80;99.90;;;;;;4997775;28;20025;-88
2021/12/14 05:30:28;;;;;;;19.70;11.07;;;8.80;99.90;;;;;;4997629;28;20037;-88
2021/12/14 05:33:06;;;;;;;21.30;12.10;;;8.80;99.90;;;;;;4998321;28;20071;-84
2021/12/14 05:35:34;;;;;;;23.30;12.07;;;8.80;99.90;;;;;;4997432;28;20041;-84
2021/12/14 05:38:02;;;;;;;24.37;12.13;;;8.80;99.90;;;;;;5014244;28;20026;-86
2021/12/14 05:43:15;;;;;;;22.07;12.70;;;8.80;99.90;;;;;;5014486;28;20036;-83
2021/12/14 05:46:07;;;;;;;;;;;8.80;99.90;;;;;;5017653;28;20021;-83
2021/12/14 05:49:00;;;;;;;21.40;12.33;;;8.80;99.90;;;;;;5002133;28;20430;-83
2021/12/14 05:51:28;;;;;;;22.03;12.57;;;8.80;99.90;;;;;;5015964;28;20346;-83
2021/12/14 05:53:55;;;;;;;21.27;12.07;;;8.80;99.90;;;;;;5015582;28;20451;-82
2021/12/14 05:56:23;;;;;;;19.20;11.87;;;8.80;99.90;;;;;;5034629;28;20445;-84
2021/12/14 05:58:57;;;;;;;21.03;12.10;;;8.80;99.90;;;;;;4997651;28;20041;-87
2021/12/14 06:01:27;;;;;;;23.23;12.17;;;8.80;99.90;;;;;;4997636;28;20517;-83
2021/12/14 06:03:57;;;;;;;21.20;12.07;;;8.80;99.90;;;;;;4998910;28;20022;-84
2021/12/14 06:06:52;;;;;;;18.93;10.77;;;8.80;99.90;;;;;;5014507;28;20057;-83
2021/12/14 06:09:27;;;;;;;22.60;13.57;;;8.80;99.90;;;;;;5016081;28;20393;-84
2021/12/14 06:12:11;;;;;;;24.17;13.17;;;8.90;99.90;;;;;;5003522;28;20028;-84
2021/12/14 06:14:43;;;;;;;25.27;13.80;;;8.80;99.90;;;;;;5018721;28;20636;-84
2021/12/14 06:17:10;;;;;;;21.17;12.90;;;8.80;99.90;;;;;;5002196;28;20394;-83
2021/12/14 06:19:40;;;;;;;21.80;12.40;;;8.80;99.90;;;;;;5018766;28;20029;-83
2021/12/14 06:22:18;;;;;;;21.03;12.67;;;8.90;99.90;;;;;;5019709;28;20029;-84
2021/12/14 06:24:47;;;;;;;21.33;12.03;;;8.90;99.90;;;;;;5003183;28;20040;-84
2021/12/14 06:27:19;;;;;;;18.00;11.47;;;8.90;99.90;;;;;;5019583;28;20033;-85
2021/12/14 06:30:02;;;;;;;20.33;11.73;;;8.90;99.90;;;;;;5002455;28;20501;-84
2021/12/14 06:32:39;;;;;;;21.20;11.67;;;8.90;99.90;;;;;;5020104;28;20083;-83
2021/12/14 06:35:12;;;;;;;21.67;12.87;;;8.90;99.90;;;;;;5020886;28;20025;-84
2021/12/14 06:40:50;;;;;;;18.23;11.63;;;8.80;99.90;;;;;;5019934;28;20057;-83
2021/12/14 06:43:25;;;;;;;17.63;10.93;;;8.80;99.90;;;;;;5038574;28;20029;-84
2021/12/14 06:45:57;;;;;;;21.27;12.83;;;8.90;99.90;;;;;;5000417;28;20448;-89
2021/12/14 06:48:47;;;;;;;21.73;13.37;;;8.90;99.90;;;;;;5017540;28;20037;-89
2021/12/14 06:51:28;;;;;;;21.97;12.03;;;9.00;99.90;;;;;;4991472;28;20064;-86
2021/12/14 06:54:12;;;;;;;19.30;11.60;;;8.90;99.90;;;;;;5042780;28;20021;-87
2021/12/14 06:57:04;;;;;;;21.17;11.40;;;8.90;99.90;;;;;;5012119;28;20033;-86
2021/12/14 06:59:35;;;;;;;18.40;10.77;;;9.00;99.90;;;;;;5045941;23;20170;-83
2021/12/14 07:02:25;;;;;;;20.85;12.20;;;8.90;99.90;;;;;;5044803;28;20083;-82
2021/12/14 07:04:59;;;;;;;19.00;11.23;;;9.00;99.90;;;;;;5042989;28;20033;-82
2021/12/14 07:07:30;;;;;;;24.30;12.88;;;9.00;99.90;;;;;;5023904;28;20029;-86
2021/12/14 07:10:03;;;;;;;21.17;12.43;;;9.00;99.90;;;;;;5035680;28;20067;-88
2021/12/14 07:12:33;;;;;;;19.33;11.43;;;9.00;99.90;;;;;;5020210;28;20484;-83
2021/12/14 07:15:00;;;;;;;;;;;9.00;99.90;;;;;;5062949;28;20464;-85
2021/12/14 07:17:29;;;;;;;21.47;12.80;;;9.00;99.90;;;;;;5045711;28;19937;-86
2021/12/14 07:19:58;;;;;;;23.67;12.63;;;9.00;99.90;;;;;;5032378;28;20029;-84
2021/12/14 07:22:30;;;;;;;21.67;12.30;;;9.00;99.90;;;;;;5029918;28;20085;-85
2021/12/14 07:25:04;;;;;;;21.73;12.97;;;9.00;99.90;;;;;;5064714;28;20056;-84
2021/12/14 07:27:46;;;;;;;20.43;12.10;;;8.90;99.90;;;;;;5046778;28;20132;-84
2021/12/14 07:30:34;;;;;;;21.83;13.20;;;9.00;99.90;;;;;;5065845;28;20054;-83
2021/12/14 07:33:16;;;;;;;22.03;13.00;;;8.90;99.90;;;;;;5036344;28;20032;-82
2021/12/14 07:35:51;;;;;;;23.57;14.13;;;8.90;99.90;;;;;;5049642;28;20461;-81
2021/12/14 07:38:41;;;;;;;24.63;14.13;;;9.00;99.90;;;;;;5047440;28;20037;-83
2021/12/14 07:41:30;;;;;;;24.23;13.87;;;9.00;99.90;;;;;;5031093;28;20067;-81
2021/12/14 07:43:59;;;;;;;26.73;14.57;;;9.00;99.90;;;;;;5065619;28;20100;-83
2021/12/14 07:46:26;;;;;;;22.33;13.30;;;9.00;99.90;;;;;;5045578;28;20092;-81
2021/12/14 07:49:00;;;;;;;24.63;14.00;;;8.90;99.90;;;;;;5046096;28;20024;-81
2021/12/14 07:51:29;;;;;;;26.30;14.60;;;9.00;99.90;;;;;;5045825;28;20036;-80
2021/12/14 07:54:02;;;;;;;24.95;14.52;;;8.90;99.90;;;;;;5045615;28;20045;-80
2021/12/14 07:56:31;;;;;;;22.63;12.23;;;9.00;99.90;;;;;;5063489;28;20044;-80
2021/12/14 07:58:58;;;;;;;22.23;13.43;;;9.00;99.90;;;;;;5043037;28;20431;-82
2021/12/14 08:01:24;;;;;;;22.63;13.57;;;9.00;99.90;;;;;;5037981;28;20036;-84
2021/12/14 08:04:07;;;;;;;23.40;13.80;;;9.00;99.90;;;;;;5036562;28;20029;-82
2021/12/14 08:06:52;;;;;;;20.83;12.63;;;8.90;99.90;;;;;;5031683;28;20119;-83
2021/12/14 08:09:47;;;;;;;23.47;13.30;;;8.90;99.90;;;;;;5017831;28;20040;-82
2021/12/14 08:12:31;;;;;;;26.20;15.37;;;8.90;99.90;;;;;;5038450;28;20028;-83
2021/12/14 08:15:23;;;;;;;27.43;14.83;;;9.00;99.90;;;;;;5025418;28;20089;-87
2021/12/14 08:18:09;;;;;;;23.10;13.83;;;8.90;99.90;;;;;;5048746;28;20052;-85
2021/12/14 08:21:00;;;;;;;29.20;16.47;;;8.90;99.90;;;;;;5055850;28;20035;-85
2021/12/14 08:23:30;;;;;;;27.47;16.63;;;8.90;99.90;;;;;;5030466;28;20037;-88
2021/12/14 08:26:24;;;;;;;27.63;16.03;;;8.90;99.90;;;;;;5050408;28;20523;-87
2021/12/14 08:28:58;;;;;;;30.00;17.13;;;8.90;99.90;;;;;;5050555;28;20029;-82
2021/12/14 08:31:36;;;;;;;27.73;15.87;;;8.90;99.90;;;;;;5033745;28;20029;-84
2021/12/14 08:34:06;;;;;;;28.07;15.87;;;9.00;99.90;;;;;;5035428;28;20425;-83
2021/12/14 08:36:39;;;;;;;29.13;16.90;;;9.00;99.90;;;;;;5044181;28;20166;-82
2021/12/14 08:39:08;;;;;;;29.03;17.00;;;9.00;99.90;;;;;;5034502;28;20078;-84
2021/12/14 08:41:34;;;;;;;27.92;15.95;;;9.00;99.90;;;;;;5043027;28;20043;-83
2021/12/14 08:44:09;;;;;;;27.10;16.47;;;9.00;99.90;;;;;;5025349;28;20029;-86
2021/12/14 08:46:35;;;;;;;28.40;16.07;;;9.00;99.90;;;;;;5051804;28;20115;-81
2021/12/14 08:49:06;;;;;;;27.00;15.37;;;9.00;99.90;;;;;;5031975;28;20025;-82
2021/12/14 08:51:40;;;;;;;30.57;16.37;;;9.00;99.90;;;;;;5031862;28;20032;-81
2021/12/14 08:54:16;;;;;;;29.10;16.27;;;9.00;99.90;;;;;;5050573;28;20033;-83
2021/12/14 08:56:59;;;;;;;27.93;16.23;;;9.00;99.90;;;;;;5031988;28;20025;-84
2021/12/14 08:59:26;;;;;;;29.07;16.77;;;9.00;99.90;;;;;;5049680;28;20634;-83
2021/12/14 09:01:53;;;;;;;27.60;15.83;;;9.00;99.90;;;;;;5029864;28;20135;-81
2021/12/14 09:04:41;;;;;;;30.50;16.73;;;9.00;99.90;;;;;;5038035;28;20024;-81
2021/12/14 09:07:11;;;;;;;28.20;15.83;;;9.00;99.90;;;;;;5028062;28;20021;-81
2021/12/14 09:09:39;;;;;;;25.30;15.30;;;9.00;99.90;;;;;;5046727;28;20017;-83
2021/12/14 09:12:13;;;;;;;26.07;16.00;;;9.00;99.90;;;;;;5047851;28;20135;-81
2021/12/14 09:14:42;;;;;;;26.33;16.10;;;9.00;99.90;;;;;;5047471;28;20064;-80
2021/12/14 09:17:11;;;;;;;26.53;15.63;;;9.00;99.90;;;;;;5031568;28;20369;-80
2021/12/14 09:19:42;;;;;;;28.75;16.40;;;9.00;99.90;;;;;;5048939;28;20052;-81
2021/12/14 09:22:13;;;;;;;27.33;16.23;;;9.00;99.90;;;;;;5031187;28;20037;-79
2021/12/14 09:24:40;;;;;;;29.80;16.90;;;9.00;99.90;;;;;;5049044;28;20044;-79
2021/12/14 09:27:11;;;;;;;29.53;16.77;;;9.00;99.90;;;;;;5049581;28;20119;-81
2021/12/14 09:29:37;;;;;;;28.83;17.17;;;8.90;99.90;;;;;;5031641;28;20024;-80
2021/12/14 09:32:07;;;;;;;28.30;16.43;;;9.00;99.90;;;;;;5050077;28;20115;-81
2021/12/14 09:34:36;;;;;;;25.37;15.33;;;9.00;99.90;;;;;;5048992;28;20039;-81
2021/12/14 09:37:04;;;;;;;26.65;15.82;;;9.00;99.90;;;;;;5048717;28;20036;-80
2021/12/14 09:39:33;;;;;;;25.13;15.43;;;9.00;99.90;;;;;;5040151;28;20033;-80
2021/12/14 09:42:05;;;;;;;24.45;15.10;;;9.10;99.90;;;;;;5048807;28;20032;-81
2021/12/14 09:44:32;;;;;;;27.00;15.63;;;9.10;99.90;;;;;;5047841;28;20028;-81
2021/12/14 09:47:09;;;;;;;28.17;15.80;;;9.10;99.90;;;;;;5037003;28;20033;-79
2021/12/14 09:49:36;;;;;;;27.20;15.47;;;9.10;99.90;;;;;;5050079;28;20106;-80
2021/12/14 09:52:13;;;;;;;26.03;15.23;;;9.10;99.90;;;;;;5031766;28;20104;-83
2021/12/14 09:54:39;;;;;;;23.53;14.93;;;9.10;99.90;;;;;;5049453;28;20036;-81
2021/12/14 09:57:22;;;;;;;26.07;15.30;;;9.10;99.90;;;;;;5015816;28;20116;-83
2021/12/14 09:59:49;;;;;;;25.70;15.40;;;9.10;99.90;;;;;;5052368;28;20175;-83
2021/12/14 10:02:26;;;;;;;29.13;16.63;;;9.20;99.90;;;;;;5032000;28;20021;-83
2021/12/14 10:04:57;;;;;;;27.90;16.27;;;9.10;99.90;;;;;;5030755;28;20029;-84
2021/12/14 10:07:24;;;;;;;27.93;16.67;;;9.20;99.90;;;;;;5040863;28;20171;-83
2021/12/14 10:09:54;;;;;;;25.83;15.80;;;9.20;99.90;;;;;;5024385;28;20021;-82
2021/12/14 10:15:07;;;;;;;30.63;16.73;;;9.20;99.90;;;;;;5048324;28;20066;-81
2021/12/14 10:17:32;;;;;;;25.97;15.23;;;9.20;99.90;;;;;;5048682;28;20105;-84
2021/12/14 10:19:58;;;;;;;30.83;17.20;;;9.20;99.90;;;;;;5023291;28;20457;-86
2021/12/14 10:22:31;;;;;;;29.27;16.53;;;9.20;99.90;;;;;;5007161;28;20045;-82
2021/12/14 10:25:05;;;;;;;28.60;17.50;;;9.20;99.90;;;;;;5031223;28;20040;-82
2021/12/14 10:27:33;;;;;;;28.53;17.17;;;9.20;99.90;;;;;;5030762;28;20045;-82
2021/12/14 10:30:01;;;;;;;26.90;15.97;;;9.20;99.90;;;;;;5020147;28;20025;-82
2021/12/14 10:32:31;;;;;;;29.03;16.97;;;9.30;99.90;;;;;;5041640;28;20056;-82
2021/12/14 10:35:02;;;;;;;26.80;15.50;;;9.20;99.90;;;;;;5021626;28;20087;-82
2021/12/14 10:37:50;;;;;;;29.53;16.70;;;9.30;99.90;;;;;;5048243;28;20033;-82
2021/12/14 10:43:12;;;;;;;31.37;17.37;;;9.30;99.90;;;;;;5047112;28;20021;-82
2021/12/14 10:46:02;;;;;;;26.85;16.20;;;9.20;99.90;;;;;;5030537;28;20032;-83
2021/12/14 10:48:33;;;;;;;31.23;16.70;;;9.30;99.90;;;;;;5047102;28;20128;-82
2021/12/14 10:51:04;;;;;;;31.63;16.77;;;9.20;99.90;;;;;;5021636;28;20030;-84
2021/12/14 10:53:31;;;;;;;29.23;17.47;;;9.20;99.90;;;;;;5029912;28;20513;-82
2021/12/14 10:56:01;;;;;;;28.97;17.53;;;9.20;99.90;;;;;;5049394;28;20025;-83
2021/12/14 10:58:28;;;;;;;30.13;17.23;;;9.30;99.90;;;;;;5052077;28;20112;-82
2021/12/14 11:01:00;;;;;;;34.17;18.93;;;9.20;99.90;;;;;;5033759;28;20119;-82
2021/12/14 11:03:31;;;;;;;31.60;18.03;;;9.30;99.90;;;;;;5052915;28;20446;-83
2021/12/14 11:06:00;;;;;;;29.30;17.10;;;9.30;99.90;;;;;;5035281;28;20126;-83
2021/12/14 11:09:39;;;;;;;27.27;17.50;;;9.30;99.90;;;;;;5036013;28;20439;-83
2021/12/14 11:11:28;;;;;;;32.80;19.20;;;9.30;99.90;;;;;;5030331;28;20103;-82
2021/12/14 11:14:00;;;;;;;34.80;20.67;;;9.30;99.90;;;;;;5051165;28;20594;-82
2021/12/14 11:18:08;;;;;;;32.90;19.73;;;9.30;99.90;;;;;;5052327;28;20048;-82
2021/12/14 11:19:52;;;;;;;38.33;22.13;;;9.30;99.90;;;;;;5033330;28;20116;-82
2021/12/14 11:22:46;;;;;;;49.20;21.80;;;9.30;99.90;;;;;;5033675;28;20582;-82
2021/12/14 11:25:17;;;;;;;37.30;20.23;;;9.40;99.90;;;;;;5034070;28;20047;-82
2021/12/14 11:27:52;;;;;;;32.77;17.97;;;9.40;99.90;;;;;;5052521;28;20041;-84
2021/12/14 11:30:23;;;;;;;33.97;19.00;;;9.40;99.90;;;;;;5055877;28;20144;-83
2021/12/14 11:33:09;;;;;;;30.57;17.20;;;9.30;99.90;;;;;;5043621;28;20381;-83
2021/12/14 11:35:40;;;;;;;30.10;17.03;;;9.40;99.90;;;;;;5034817;28;20040;-82
2021/12/14 11:38:43;;;;;;;30.13;17.10;;;9.40;99.90;;;;;;5050528;28;20036;-84
2021/12/14 11:41:39;;;;;;;33.23;18.17;;;9.40;99.90;;;;;;5030960;28;20044;-82
2021/12/14 11:44:08;;;;;;;30.83;17.83;;;9.40;99.90;;;;;;5050214;28;20033;-82
2021/12/14 11:47:08;;;;;;;32.45;17.27;;;9.40;99.90;;;;;;5032876;28;20021;-82
2021/12/14 11:49:55;;;;;;;31.57;19.00;;;9.40;99.90;;;;;;5054962;28;20029;-78
2021/12/14 11:52:50;;;;;;;31.37;17.70;;;9.40;99.90;;;;;;5048565;28;20449;-78
2021/12/14 11:55:38;;;;;;;32.10;18.20;;;9.40;99.90;;;;;;5038886;28;20032;-81
2021/12/14 11:58:30;;;;;;;27.53;16.13;;;9.40;99.90;;;;;;5036200;28;20131;-81
2021/12/14 12:01:35;;;;;;;32.13;17.33;;;9.40;99.90;;;;;;5030396;28;20036;-81
2021/12/14 12:04:09;;;;;;;28.37;17.27;;;9.50;99.90;;;;;;5029000;28;20183;-81
2021/12/14 12:09:42;;;;;;;64.80;22.00;;;9.50;99.90;;;;;;5046569;28;20104;-81
2021/12/14 12:12:14;;;;;;;34.40;19.97;;;9.50;99.90;;;;;;5032003;28;20029;-82
2021/12/14 12:14:40;;;;;;;44.00;21.00;;;9.60;99.90;;;;;;5025107;28;20477;-81
2021/12/14 12:17:08;;;;;;;34.83;19.70;;;9.60;99.90;;;;;;5049283;28;20060;-81
2021/12/14 12:19:36;;;;;;;31.77;19.15;;;9.60;99.90;;;;;;5049328;28;20541;-84
2021/12/14 12:22:12;;;;;;;35.50;18.07;;;9.60;99.90;;;;;;5029373;28;20112;-80
2021/12/14 12:24:44;;;;;;;35.27;19.40;;;9.60;99.90;;;;;;5032295;28;20142;-81
2021/12/14 12:27:29;;;;;;;31.83;18.17;;;9.60;99.90;;;;;;5041815;28;20028;-80
2021/12/14 12:30:26;;;;;;;31.03;18.07;;;9.60;99.90;;;;;;5030842;28;20025;-86
2021/12/14 12:32:52;;;;;;;33.07;17.50;;;9.60;99.90;;;;;;5029381;28;20268;-89
2021/12/14 12:35:39;;;;;;;29.73;17.33;;;9.60;99.90;;;;;;5015250;28;20126;-85
2021/12/14 12:38:44;;;;;;;33.07;17.93;;;9.70;99.90;;;;;;5030464;28;20796;-83
2021/12/14 12:41:47;;;;;;;28.23;16.37;;;9.70;99.90;;;;;;5030589;28;20040;-89
2021/12/14 12:44:27;;;;;;;34.83;17.63;;;9.70;99.90;;;;;;5030210;28;20818;-83
2021/12/14 12:47:19;;;;;;;33.80;17.63;;;9.70;99.90;;;;;;5029059;28;20049;-84
2021/12/14 12:49:52;;;;;;;28.47;16.37;;;9.70;99.90;;;;;;5028735;28;20021;-84
2021/12/14 12:52:27;;;;;;;30.50;17.17;;;9.70;99.90;;;;;;5024100;28;20041;-89
2021/12/14 12:55:18;;;;;;;29.07;16.33;;;9.80;99.90;;;;;;5037507;28;20040;-83
2021/12/14 12:57:55;;;;;;;30.60;16.83;;;9.80;99.90;;;;;;5041079;28;20041;-89
2021/12/14 13:00:35;;;;;;;30.83;17.87;;;9.80;99.90;;;;;;5035086;28;20029;-90
2021/12/14 13:03:18;;;;;;;32.47;17.80;;;9.80;99.90;;;;;;5048348;28;20029;-89
2021/12/14 13:06:08;;;;;;;29.83;17.30;;;9.80;99.90;;;;;;5024468;28;20025;-89
2021/12/14 13:08:46;;;;;;;28.33;16.47;;;9.90;99.90;;;;;;5021866;28;20044;-89
2021/12/14 13:11:17;;;;;;;32.50;17.40;;;9.90;99.90;;;;;;5031376;28;20117;-88
2021/12/14 13:13:56;;;;;;;34.17;18.53;;;9.90;99.90;;;;;;5025165;28;20028;-86
2021/12/14 13:16:25;;;;;;;30.13;18.65;;;10.00;99.90;;;;;;5050441;28;20043;-86
2021/12/14 13:19:30;;;;;;;32.47;18.63;;;10.00;99.90;;;;;;5033822;28;20037;-83
2021/12/14 13:21:59;;;;;;;29.53;17.43;;;9.90;99.90;;;;;;5011675;28;20049;-86
2021/12/14 13:24:29;;;;;;;34.90;17.75;;;9.90;99.90;;;;;;5032542;28;20078;-80
2021/12/14 13:27:06;;;;;;;33.03;17.80;;;9.90;99.90;;;;;;5049606;28;20021;-81
2021/12/14 13:29:44;;;;;;;35.23;17.73;;;10.00;99.90;;;;;;5013176;28;20057;-80
2021/12/14 13:32:15;;;;;;;34.87;19.17;;;10.10;99.90;;;;;;5031270;28;20036;-82
2021/12/14 13:35:05;;;;;;;40.03;21.57;;;10.10;99.90;;;;;;5063450;28;20033;-83
2021/12/14 13:37:41;;;;;;;35.30;20.27;;;10.20;99.90;;;;;;5050071;28;20102;-84
2021/12/14 13:40:23;;;;;;;33.90;19.83;;;10.20;99.90;;;;;;5055150;28;20037;-84
2021/12/14 13:43:17;;;;;;;33.73;19.43;;;10.20;99.90;;;;;;5032886;28;20052;-82
2021/12/14 13:45:51;;;;;;;32.37;17.70;;;10.20;99.90;;;;;;5047622;28;20041;-85
2021/12/14 13:48:21;;;;;;;32.57;19.47;;;10.20;99.90;;;;;;5033736;28;20032;-83
2021/12/14 13:50:53;;;;;;;42.87;20.23;;;10.20;99.90;;;;;;5044935;28;20037;-84
2021/12/14 13:53:19;;;;;;;32.13;17.93;;;10.10;99.90;;;;;;5055936;28;20045;-84
2021/12/14 13:55:51;;;;;;;33.60;18.73;;;10.10;99.90;;;;;;5053327;28;20139;-83